createdAt,value
2018-11-25T00:01:08.721Z,52.33
2018-11-25T00:03:36.315Z,52.28
2018-11-25T00:06:04.366Z,52.16
2018-11-25T00:08:31.983Z,52.31
2018-11-25T00:10:59.616Z,52.55
2018-11-25T00:13:27.307Z,52.21
2018-11-25T00:15:54.957Z,52.58
2018-11-25T00:18:22.665Z,52.50
2018-11-25T00:20:50.320Z,52.53
2018-11-25T00:23:17.965Z,52.48
2018-11-25T00:25:45.588Z,52.44
2018-11-25T00:28:13.257Z,52.44
2018-11-25T00:30:40.905Z,52.21
2018-11-25T00:33:08.560Z,52.35
2018-11-25T00:35:36.283Z,52.38
2018-11-25T00:38:03.923Z,52.55
2018-11-25T00:40:31.635Z,52.23
2018-11-25T00:42:59.430Z,52.41
2018-11-25T00:45:27.113Z,52.45
2018-11-25T00:47:54.790Z,52.45
2018-11-25T00:50:22.547Z,52.36
2018-11-25T00:52:50.235Z,52.36
2018-11-25T00:55:17.998Z,52.44
2018-11-25T00:57:45.675Z,52.44
2018-11-25T01:00:17.655Z,52.35
2018-11-25T01:02:45.829Z,52.45
2018-11-25T01:05:13.491Z,52.37
2018-11-25T01:07:41.216Z,52.36
2018-11-25T01:10:16.327Z,52.29
2018-11-25T01:12:44.729Z,52.33
2018-11-25T01:15:13.425Z,52.15
2018-11-25T01:17:41.137Z,52.39
2018-11-25T01:20:13.347Z,52.37
2018-11-25T01:22:40.957Z,52.30
2018-11-25T01:25:09.753Z,52.14
2018-11-25T01:27:37.578Z,52.45
2018-11-25T01:30:10.405Z,52.38
2018-11-25T01:32:38.251Z,52.22
2018-11-25T01:35:07.344Z,52.32
2018-11-25T01:37:35.185Z,52.29
2018-11-25T01:40:03.177Z,52.36
2018-11-25T01:42:30.869Z,52.25
2018-11-25T01:44:58.595Z,52.27
2018-11-25T01:47:26.275Z,52.37
2018-11-25T01:49:53.951Z,52.17
2018-11-25T01:52:21.613Z,52.40
2018-11-25T01:54:49.287Z,52.33
2018-11-25T01:57:17.324Z,52.53
2018-11-25T01:59:45.016Z,52.58
2018-11-25T02:02:12.722Z,52.27
2018-11-25T02:04:40.408Z,52.45
2018-11-25T02:07:08.058Z,52.26
2018-11-25T02:09:35.772Z,52.26
2018-11-25T02:12:03.485Z,52.40
2018-11-25T02:14:31.182Z,52.29
2018-11-25T02:16:58.871Z,52.42
2018-11-25T02:19:26.554Z,52.17
2018-11-25T02:21:54.309Z,52.21
2018-11-25T02:24:22.021Z,52.55
2018-11-25T02:26:49.669Z,52.61
2018-11-25T02:29:17.357Z,52.55
2018-11-25T02:31:45.070Z,52.61
2018-11-25T02:34:12.726Z,52.30
2018-11-25T02:36:40.470Z,52.72
2018-11-25T02:39:08.732Z,52.42
2018-11-25T02:41:36.479Z,52.32
2018-11-25T02:44:04.257Z,52.22
2018-11-25T02:46:31.936Z,52.23
2018-11-25T02:48:59.708Z,52.25
2018-11-25T02:51:27.354Z,52.24
2018-11-25T02:53:55.240Z,52.10
2018-11-25T02:56:23.188Z,52.21
2018-11-25T02:58:50.829Z,52.26
2018-11-25T03:01:19.051Z,52.34
2018-11-25T03:03:46.764Z,52.37
2018-11-25T03:08:48.715Z,52.34
2018-11-25T03:11:16.394Z,52.12
2018-11-25T03:13:44.070Z,52.42
2018-11-25T03:16:11.723Z,52.26
2018-11-25T03:18:39.522Z,52.21
2018-11-25T03:21:07.164Z,52.27
2018-11-25T03:23:34.950Z,51.98
2018-11-25T03:26:02.611Z,52.22
2018-11-25T03:28:30.265Z,52.20
2018-11-25T03:30:57.953Z,52.29
2018-11-25T03:33:25.636Z,52.15
2018-11-25T03:35:53.385Z,52.33
2018-11-25T03:38:21.058Z,52.27
2018-11-25T03:40:48.780Z,52.29
2018-11-25T03:43:16.588Z,52.12
2018-11-25T03:45:44.264Z,52.21
2018-11-25T03:48:11.885Z,52.30
2018-11-25T03:50:39.644Z,52.42
2018-11-25T03:53:07.325Z,52.17
2018-11-25T03:55:35.099Z,52.15
2018-11-25T03:58:02.751Z,52.10
2018-11-25T04:00:30.396Z,52.12
2018-11-25T04:02:58.098Z,52.29
2018-11-25T04:05:25.811Z,52.09
2018-11-25T04:07:53.508Z,52.28
2018-11-25T04:10:21.163Z,52.47
2018-11-25T04:12:48.852Z,52.25
2018-11-25T04:15:17.163Z,52.26
2018-11-25T04:17:45.146Z,52.32
2018-11-25T04:20:17.484Z,52.28
2018-11-25T04:22:45.214Z,52.16
2018-11-25T04:25:13.166Z,52.24
2018-11-25T04:27:40.822Z,52.21
2018-11-25T04:30:13.065Z,52.12
2018-11-25T04:32:40.913Z,52.15
2018-11-25T04:35:09.721Z,52.11
2018-11-25T04:37:37.421Z,52.08
2018-11-25T04:40:06.534Z,51.97
2018-11-25T04:42:34.164Z,52.03
2018-11-25T04:45:01.918Z,52.00
2018-11-25T04:47:29.574Z,51.83
2018-11-25T04:49:57.214Z,51.93
2018-11-25T04:52:24.839Z,51.94
2018-11-25T04:54:52.587Z,52.00
2018-11-25T04:57:20.233Z,51.90
2018-11-25T04:59:47.878Z,51.93
2018-11-25T05:02:15.658Z,51.90
2018-11-25T05:04:43.289Z,51.71
2018-11-25T05:07:10.953Z,51.76
2018-11-25T05:09:38.664Z,51.92
2018-11-25T05:12:06.300Z,51.75
2018-11-25T05:14:33.987Z,51.59
2018-11-25T05:17:01.688Z,51.62
2018-11-25T05:19:29.347Z,51.56
2018-11-25T05:21:57.074Z,51.65
2018-11-25T05:24:24.767Z,51.59
2018-11-25T05:26:52.500Z,51.67
2018-11-25T05:29:20.180Z,51.68
2018-11-25T05:31:47.816Z,51.78
2018-11-25T05:34:15.447Z,51.43
2018-11-25T05:36:43.060Z,51.50
2018-11-25T05:39:10.796Z,51.52
2018-11-25T05:41:38.433Z,51.51
2018-11-25T05:44:06.064Z,51.56
2018-11-25T05:46:33.795Z,51.44
2018-11-25T05:49:01.494Z,51.25
2018-11-25T05:51:29.212Z,51.58
2018-11-25T05:53:56.871Z,51.38
2018-11-25T05:56:24.535Z,51.49
2018-11-25T05:58:52.237Z,51.45
2018-11-25T06:01:19.930Z,51.38
2018-11-25T06:03:47.545Z,51.55
2018-11-25T06:06:15.219Z,51.24
2018-11-25T06:08:42.897Z,51.48
2018-11-25T06:11:10.571Z,51.37
2018-11-25T06:13:38.361Z,51.47
2018-11-25T06:16:06.007Z,51.25
2018-11-25T06:18:33.805Z,51.40
2018-11-25T06:21:01.508Z,51.38
2018-11-25T06:23:29.161Z,51.26
2018-11-25T06:25:56.791Z,51.40
2018-11-25T06:28:24.471Z,51.12
2018-11-25T06:30:52.167Z,51.42
2018-11-25T06:33:19.771Z,51.18
2018-11-25T06:35:47.538Z,51.38
2018-11-25T06:38:15.153Z,51.46
2018-11-25T06:40:42.775Z,51.33
2018-11-25T06:43:10.465Z,51.23
2018-11-25T06:45:38.059Z,51.38
2018-11-25T06:48:06.502Z,51.26
2018-11-25T06:50:34.156Z,51.50
2018-11-25T06:53:01.767Z,51.51
2018-11-25T06:55:29.463Z,51.36
2018-11-25T06:57:57.081Z,51.40
2018-11-25T07:00:25.485Z,51.35
2018-11-25T07:02:53.261Z,51.38
2018-11-25T07:05:20.932Z,51.24
2018-11-25T07:07:48.637Z,51.43
2018-11-25T07:10:17.999Z,51.39
2018-11-25T07:12:45.941Z,51.29
2018-11-25T07:15:15.514Z,51.07
2018-11-25T07:17:43.126Z,51.29
2018-11-25T07:20:14.207Z,50.98
2018-11-25T07:22:41.872Z,51.42
2018-11-25T07:25:17.625Z,51.29
2018-11-25T07:27:45.320Z,51.25
2018-11-25T07:30:17.147Z,51.36
2018-11-25T07:32:44.960Z,51.24
2018-11-25T07:35:12.636Z,51.33
2018-11-25T07:37:40.438Z,51.30
2018-11-25T07:40:12.196Z,51.26
2018-11-25T07:42:39.866Z,51.39
2018-11-25T07:45:13.809Z,51.29
2018-11-25T07:47:41.441Z,51.15
2018-11-25T07:50:11.129Z,51.31
2018-11-25T07:52:38.813Z,51.27
2018-11-25T07:55:24.569Z,51.23
2018-11-25T07:57:53.254Z,51.07
2018-11-25T08:00:21.973Z,51.08
2018-11-25T08:02:49.634Z,51.11
2018-11-25T08:05:20.262Z,51.22
2018-11-25T08:07:47.945Z,51.19
2018-11-25T08:10:15.851Z,51.32
2018-11-25T08:12:43.743Z,51.14
2018-11-25T08:15:13.508Z,51.29
2018-11-25T08:17:41.150Z,51.20
2018-11-25T08:20:11.969Z,51.03
2018-11-25T08:22:39.671Z,51.02
2018-11-25T08:25:08.699Z,51.32
2018-11-25T08:27:36.333Z,51.07
2018-11-25T08:30:06.333Z,50.88
2018-11-25T08:32:34.009Z,51.14
2018-11-25T08:35:01.660Z,51.20
2018-11-25T08:37:29.347Z,51.24
2018-11-25T08:39:57.025Z,50.96
2018-11-25T08:42:24.710Z,51.03
2018-11-25T08:44:52.355Z,51.07
2018-11-25T08:47:20.047Z,50.85
2018-11-25T08:49:47.732Z,51.12
2018-11-25T08:52:15.348Z,50.86
2018-11-25T08:54:42.997Z,50.82
2018-11-25T08:57:10.693Z,50.94
2018-11-25T08:59:38.354Z,50.90
2018-11-25T09:02:06.207Z,50.70
2018-11-25T09:04:33.993Z,51.02
2018-11-25T09:07:01.694Z,51.14
2018-11-25T09:09:30.388Z,50.98
2018-11-25T09:11:57.158Z,51.04
2018-11-25T09:14:24.819Z,50.90
2018-11-25T09:16:52.457Z,51.01
2018-11-25T09:19:20.115Z,50.81
2018-11-25T09:21:47.850Z,50.80
2018-11-25T09:24:15.534Z,51.05
2018-11-25T09:26:43.211Z,50.75
2018-11-25T09:29:10.881Z,50.81
2018-11-25T09:31:38.516Z,50.62
2018-11-25T09:34:06.192Z,50.68
2018-11-25T09:36:33.974Z,50.47
2018-11-25T09:39:01.606Z,50.67
2018-11-25T09:41:29.278Z,50.91
2018-11-25T09:43:57.053Z,50.55
2018-11-25T09:46:24.680Z,50.59
2018-11-25T09:48:52.310Z,50.60
2018-11-25T09:51:19.996Z,50.73
2018-11-25T09:53:47.654Z,50.56
2018-11-25T09:56:15.312Z,50.79
2018-11-25T09:58:43.005Z,50.62
2018-11-25T10:01:10.675Z,50.78
2018-11-25T10:03:38.353Z,50.56
2018-11-25T10:06:06.438Z,50.50
2018-11-25T10:08:34.134Z,50.48
2018-11-25T10:11:01.817Z,50.80
2018-11-25T10:13:29.459Z,50.55
2018-11-25T10:15:57.109Z,50.37
2018-11-25T10:18:24.747Z,50.42
2018-11-25T10:20:52.430Z,50.73
2018-11-25T10:23:20.129Z,50.38
2018-11-25T10:25:47.767Z,50.61
2018-11-25T10:28:15.474Z,50.32
2018-11-25T10:30:43.270Z,50.67
2018-11-25T10:33:11.002Z,50.74
2018-11-25T10:35:38.618Z,50.53
2018-11-25T10:38:06.251Z,50.36
2018-11-25T10:40:33.911Z,50.51
2018-11-25T10:43:01.574Z,50.46
2018-11-25T10:45:29.382Z,50.34
2018-11-25T10:47:57.652Z,50.30
2018-11-25T10:50:25.288Z,50.36
2018-11-25T10:52:52.962Z,50.44
2018-11-25T10:55:21.307Z,50.24
2018-11-25T10:57:50.014Z,50.17
2018-11-25T11:00:27.407Z,50.11
2018-11-25T11:03:00.561Z,50.20
2018-11-25T11:05:33.774Z,50.09
2018-11-25T11:08:01.431Z,50.05
2018-11-25T11:10:29.059Z,50.07
2018-11-25T11:12:56.699Z,50.21
2018-11-25T11:15:24.305Z,50.04
2018-11-25T11:17:52.022Z,49.99
2018-11-25T11:20:19.672Z,49.74
2018-11-25T11:22:47.350Z,49.96
2018-11-25T11:25:15.047Z,50.08
2018-11-25T11:27:42.693Z,50.04
2018-11-25T11:30:11.049Z,49.93
2018-11-25T11:39:43.041Z,50.00
2018-11-25T11:42:10.706Z,50.00
2018-11-25T11:44:38.353Z,50.01
2018-11-25T11:47:06.086Z,49.99
2018-11-25T11:49:33.732Z,50.14
2018-11-25T11:52:01.393Z,50.02
2018-11-25T11:54:29.180Z,50.00
2018-11-25T11:56:56.822Z,50.12
2018-11-25T11:59:24.442Z,50.03
2018-11-25T12:01:52.157Z,50.25
2018-11-25T12:04:19.798Z,50.38
2018-11-25T12:06:47.493Z,50.10
2018-11-25T12:09:15.235Z,50.14
2018-11-25T12:11:42.895Z,50.14
2018-11-25T12:14:10.625Z,49.89
2018-11-25T12:16:38.327Z,50.56
2018-11-25T12:19:06.073Z,49.84
2018-11-25T12:21:33.730Z,50.06
2018-11-25T12:24:01.383Z,50.09
2018-11-25T12:26:29.136Z,50.17
2018-11-25T12:28:56.899Z,50.14
2018-11-25T12:31:24.747Z,50.12
2018-11-25T12:33:52.804Z,50.08
2018-11-25T12:36:20.517Z,50.14
2018-11-25T12:38:48.261Z,50.11
2018-11-25T12:41:15.914Z,50.15
2018-11-25T12:43:43.573Z,50.26
2018-11-25T12:46:11.393Z,50.03
2018-11-25T12:48:39.067Z,49.99
2018-11-25T12:51:06.823Z,50.31
2018-11-25T12:53:34.489Z,50.17
2018-11-25T12:56:02.114Z,50.29
2018-11-25T12:58:29.832Z,50.27
2018-11-25T13:00:57.522Z,50.38
2018-11-25T13:03:25.186Z,50.42
2018-11-25T13:05:52.859Z,50.37
2018-11-25T13:08:20.526Z,50.19
2018-11-25T13:10:48.184Z,50.20
2018-11-25T13:13:15.879Z,50.30
2018-11-25T13:15:43.533Z,50.25
2018-11-25T13:18:11.190Z,50.24
2018-11-25T13:20:38.820Z,50.07
2018-11-25T13:23:06.787Z,50.14
2018-11-25T13:25:34.418Z,50.33
2018-11-25T13:28:02.101Z,50.19
2018-11-25T13:30:30.903Z,50.19
2018-11-25T13:32:59.963Z,50.28
2018-11-25T13:35:29.242Z,50.20
2018-11-25T13:37:56.975Z,50.14
2018-11-25T13:40:24.630Z,50.31
2018-11-25T13:42:52.269Z,50.47
2018-11-25T13:45:20.721Z,50.39
2018-11-25T13:47:48.407Z,50.37
2018-11-25T13:50:16.054Z,50.29
2018-11-25T13:52:43.706Z,50.23
2018-11-25T13:55:15.924Z,50.28
2018-11-25T13:57:43.641Z,50.41
2018-11-25T14:00:29.010Z,50.34
2018-11-25T14:02:56.666Z,50.32
2018-11-25T14:05:24.339Z,50.20
2018-11-25T14:07:51.986Z,50.25
2018-11-25T14:10:21.967Z,50.13
2018-11-25T14:12:49.721Z,50.21
2018-11-25T14:15:17.368Z,50.39
2018-11-25T14:17:44.990Z,50.25
2018-11-25T14:20:12.696Z,50.29
2018-11-25T14:22:40.301Z,50.16
2018-11-25T14:25:10.058Z,50.51
2018-11-25T14:27:37.675Z,50.41
2018-11-25T14:30:16.227Z,50.54
2018-11-25T14:32:43.909Z,50.38
2018-11-25T14:35:13.392Z,50.27
2018-11-25T14:37:41.052Z,50.12
2018-11-25T14:40:10.575Z,50.35
2018-11-25T14:42:38.320Z,50.33
2018-11-25T14:45:08.539Z,50.29
2018-11-25T14:47:36.229Z,50.19
2018-11-25T14:50:04.671Z,50.53
2018-11-25T14:52:32.446Z,50.33
2018-11-25T14:55:00.130Z,50.35
2018-11-25T14:57:27.848Z,50.25
2018-11-25T14:59:55.531Z,50.20
2018-11-25T15:02:23.363Z,50.36
2018-11-25T15:04:51.017Z,50.25
2018-11-25T15:07:18.701Z,50.30
2018-11-25T15:09:46.361Z,50.21
2018-11-25T15:12:14.021Z,50.17
2018-11-25T15:14:41.752Z,50.38
2018-11-25T15:17:09.419Z,50.58
2018-11-25T15:19:37.070Z,50.56
2018-11-25T15:22:04.763Z,50.46
2018-11-25T15:24:32.494Z,50.12
2018-11-25T15:27:00.212Z,50.62
2018-11-25T15:29:27.890Z,50.56
2018-11-25T15:31:55.694Z,50.54
2018-11-25T15:34:23.465Z,50.40
2018-11-25T15:36:51.128Z,50.45
2018-11-25T15:39:18.864Z,50.45
2018-11-25T15:41:53.183Z,50.36
2018-11-25T15:44:20.848Z,50.48
2018-11-25T15:46:48.508Z,50.67
2018-11-25T15:49:16.186Z,50.69
2018-11-25T15:51:43.847Z,50.74
2018-11-25T15:54:11.561Z,50.65
2018-11-25T15:56:39.251Z,50.45
2018-11-25T15:59:06.996Z,50.52
2018-11-25T16:01:34.663Z,50.73
2018-11-25T16:04:02.339Z,50.82
2018-11-25T16:06:32.573Z,50.62
2018-11-25T16:09:00.206Z,50.60
2018-11-25T16:11:27.945Z,50.72
2018-11-25T16:13:55.581Z,50.51
2018-11-25T16:16:23.312Z,50.72
2018-11-25T16:18:51.369Z,50.80
2018-11-25T16:21:19.018Z,50.60
2018-11-25T16:23:46.798Z,50.59
2018-11-25T16:26:21.417Z,50.61
2018-11-25T16:28:51.592Z,50.62
2018-11-25T16:31:19.240Z,50.59
2018-11-25T16:33:47.030Z,50.63
2018-11-25T16:36:14.711Z,50.37
2018-11-25T16:38:42.333Z,50.55
2018-11-25T16:41:09.985Z,50.47
2018-11-25T16:43:37.617Z,50.61
2018-11-25T16:46:05.326Z,50.61
2018-11-25T16:48:33.042Z,50.74
2018-11-25T16:51:00.698Z,50.46
2018-11-25T16:53:28.400Z,50.75
2018-11-25T16:55:55.990Z,50.65
2018-11-25T16:58:23.717Z,50.63
2018-11-25T17:00:51.324Z,50.61
2018-11-25T17:03:19.002Z,50.81
2018-11-25T17:05:49.328Z,50.51
2018-11-25T17:08:36.241Z,50.73
2018-11-25T17:11:03.920Z,50.79
2018-11-25T17:13:31.679Z,50.86
2018-11-25T17:15:59.358Z,50.61
2018-11-25T17:18:27.041Z,50.74
2018-11-25T17:20:54.763Z,50.82
2018-11-25T17:23:22.482Z,50.52
2018-11-25T17:25:50.226Z,50.92
2018-11-25T17:28:17.878Z,50.68
2018-11-25T17:30:45.582Z,50.53
2018-11-25T17:33:13.197Z,50.69
2018-11-25T17:35:40.889Z,50.53
2018-11-25T17:38:08.591Z,50.38
2018-11-25T17:40:36.248Z,50.52
2018-11-25T17:43:04.008Z,50.51
2018-11-25T17:45:31.640Z,50.61
2018-11-25T17:47:59.298Z,50.61
2018-11-25T17:50:28.461Z,50.61
2018-11-25T17:52:56.187Z,50.63
2018-11-25T17:55:26.203Z,50.68
2018-11-25T17:57:53.888Z,50.76
2018-11-25T18:00:28.977Z,50.81
2018-11-25T18:02:56.734Z,50.55
2018-11-25T18:05:24.390Z,50.54
2018-11-25T18:07:52.050Z,50.61
2018-11-25T18:10:19.706Z,50.61
2018-11-25T18:12:47.330Z,50.48
2018-11-25T18:15:16.677Z,50.45
2018-11-25T18:18:01.396Z,50.65
2018-11-25T18:20:33.345Z,50.49
2018-11-25T18:23:01.006Z,50.33
2018-11-25T18:25:28.649Z,50.62
2018-11-25T18:28:00.532Z,50.76
2018-11-25T18:30:24.173Z,50.51
2018-11-25T18:32:51.818Z,50.41
2018-11-25T18:35:19.503Z,50.53
2018-11-25T18:37:47.203Z,50.60
2018-11-25T18:40:14.854Z,50.78
2018-11-25T18:42:43.373Z,50.64
2018-11-25T18:45:12.478Z,50.49
2018-11-25T18:47:40.098Z,50.49
2018-11-25T18:50:12.172Z,50.63
2018-11-25T18:52:40.058Z,50.61
2018-11-25T18:55:06.588Z,50.70
2018-11-25T18:57:34.219Z,50.80
2018-11-25T19:00:01.866Z,50.91
2018-11-25T19:02:41.949Z,50.79
2018-11-25T19:05:09.821Z,50.79
2018-11-25T19:07:37.491Z,50.57
2018-11-25T19:10:10.145Z,50.72
2018-11-25T19:12:44.004Z,50.75
2018-11-25T19:15:07.441Z,50.67
2018-11-25T19:17:35.105Z,50.47
2018-11-25T19:20:03.714Z,50.58
2018-11-25T19:22:31.386Z,50.92
2018-11-25T19:24:59.003Z,50.89
2018-11-25T19:27:26.677Z,50.78
2018-11-25T19:29:54.297Z,50.82
2018-11-25T19:32:21.966Z,50.89
2018-11-25T19:34:49.634Z,50.61
2018-11-25T19:37:17.283Z,50.67
2018-11-25T19:39:45.042Z,50.70
2018-11-25T19:42:12.679Z,50.63
2018-11-25T19:44:40.291Z,50.73
2018-11-25T19:47:07.938Z,50.71
2018-11-25T19:49:35.611Z,50.90
2018-11-25T19:52:03.221Z,50.89
2018-11-25T19:54:30.846Z,50.96
2018-11-25T19:56:58.617Z,50.97
2018-11-25T19:59:26.261Z,50.67
2018-11-25T20:01:54.086Z,50.80
2018-11-25T20:04:21.716Z,50.83
2018-11-25T20:06:49.517Z,50.76
2018-11-25T20:09:17.147Z,50.82
2018-11-25T20:11:44.802Z,50.88
2018-11-25T20:14:12.490Z,50.77
2018-11-25T20:16:45.641Z,50.70
2018-11-25T20:19:13.298Z,50.76
2018-11-25T20:21:46.451Z,50.70
2018-11-25T20:24:14.092Z,51.03
2018-11-25T20:26:47.349Z,50.76
2018-11-25T20:29:14.975Z,51.20
2018-11-25T20:31:42.729Z,51.16
2018-11-25T20:34:10.351Z,51.17
2018-11-25T20:36:37.956Z,51.04
2018-11-25T20:39:13.683Z,51.19
2018-11-25T20:41:41.364Z,51.00
2018-11-25T20:44:09.031Z,51.37
2018-11-25T20:46:42.379Z,51.17
2018-11-25T20:49:10.090Z,51.20
2018-11-25T20:51:43.440Z,51.33
2018-11-25T20:54:11.083Z,51.24
2018-11-25T20:56:38.722Z,51.40
2018-11-25T20:59:06.525Z,51.40
2018-11-25T21:01:34.203Z,51.42
2018-11-25T21:04:01.798Z,51.14
2018-11-25T21:06:29.615Z,51.31
2018-11-25T21:08:57.250Z,51.23
2018-11-25T21:11:24.926Z,51.51
2018-11-25T21:13:52.685Z,51.24
2018-11-25T21:16:20.328Z,51.35
2018-11-25T21:18:47.952Z,51.45
2018-11-25T21:21:15.622Z,51.30
2018-11-25T21:23:43.289Z,51.55
2018-11-25T21:26:10.942Z,51.49
2018-11-25T21:28:38.565Z,51.54
2018-11-25T21:31:06.196Z,51.12
2018-11-25T21:33:33.789Z,51.62
2018-11-25T21:36:01.535Z,51.55
2018-11-25T21:38:29.146Z,51.89
2018-11-25T21:40:56.810Z,51.92
2018-11-25T21:43:24.481Z,51.68
2018-11-25T21:45:52.168Z,51.87
2018-11-25T21:48:19.852Z,51.35
2018-11-25T21:50:47.492Z,51.25
2018-11-25T21:53:15.214Z,51.74
2018-11-25T21:55:42.867Z,51.27
2018-11-25T21:58:10.470Z,51.21
2018-11-25T22:00:38.098Z,51.73
2018-11-25T22:03:05.810Z,51.67
2018-11-25T22:05:33.377Z,51.29
2018-11-25T22:08:01.054Z,51.85
2018-11-25T22:10:28.672Z,51.45
2018-11-25T22:12:56.361Z,51.69
2018-11-25T22:15:24.114Z,51.55
2018-11-25T22:17:51.720Z,51.87
2018-11-25T22:20:19.355Z,51.64
2018-11-25T22:22:47.021Z,51.64
2018-11-25T22:25:16.828Z,51.64
2018-11-25T22:27:44.570Z,51.70
2018-11-25T22:30:14.342Z,51.61
2018-11-25T22:32:42.030Z,51.58
2018-11-25T22:35:11.026Z,51.65
2018-11-25T22:37:38.676Z,51.83
2018-11-25T22:40:08.135Z,51.47
2018-11-25T22:42:35.892Z,51.54
2018-11-25T22:45:03.821Z,51.65
2018-11-25T22:47:31.444Z,51.58
2018-11-25T22:49:59.095Z,51.72
2018-11-25T22:52:26.736Z,51.53
2018-11-25T22:54:54.382Z,51.77
2018-11-25T22:57:22.106Z,51.75
2018-11-25T22:59:49.722Z,51.55
2018-11-25T23:02:17.405Z,51.63
2018-11-25T23:04:56.325Z,51.64
2018-11-25T23:07:23.967Z,51.59
2018-11-25T23:09:51.601Z,51.54
2018-11-25T23:12:19.276Z,51.55
2018-11-25T23:14:46.899Z,51.63
2018-11-25T23:17:14.538Z,51.73
2018-11-25T23:19:42.315Z,51.72
2018-11-25T23:22:09.924Z,51.43
2018-11-25T23:24:37.522Z,51.41
2018-11-25T23:27:05.218Z,51.47
2018-11-25T23:29:32.903Z,51.74
2018-11-25T23:32:00.564Z,51.63
2018-11-25T23:34:28.177Z,51.80
2018-11-25T23:36:55.831Z,51.66
2018-11-25T23:39:23.636Z,51.53
2018-11-25T23:41:51.255Z,51.63
2018-11-25T23:44:18.873Z,51.50
2018-11-25T23:46:46.555Z,51.59
2018-11-25T23:49:14.223Z,51.57
2018-11-25T23:51:41.993Z,51.57
2018-11-25T23:54:09.654Z,51.54
2018-11-25T23:56:37.282Z,51.50
2018-11-25T23:59:05.445Z,51.73
